LEAB/ABC METAR and TAF weather

Enter ICAO airport designator
Station Type Date Time Source
LEAB METAR 2019/08/23 18:00 UTC NOAA

LEAB 231800Z 15005KT 110V190 CAVOK 29/06 Q1020 NOSIG


Station Type Date Time Source
LEAB Decoded METAR 2019/08/23 18:00 UTC NOAA

Station name not available
Aug 23, 2019 - 02:00 PM EDT / 2019.08.23 1800 UTC
Wind: from the SSE (150 degrees) at 6 MPH (5 KT) (direction variable):0
Visibility: greater than 7 mile(s):0
Temperature: 84 F (29 C)
Dew Point: 42 F (6 C)
Relative Humidity: 23%
Pressure (altimeter): 30.12 in. Hg (1020 hPa)
ob: LEAB 231800Z 15005KT 110V190 CAVOK 29/06 Q1020 NOSIG
cycle: 18

Station Type Date Time Source
LEAB TAF 2018/04/26 18:51 UTC NOAA

TAF
AMD LEAB 261747Z 2618/2706 16012KT 9999 FEW040
BECMG 2704/2706 27015KT
TEMPO 2704/2706 BKN014

Example: see airport list